Time;durP1;ratioP1;P1;durP2;ratioP2;P2;SDS_P1;SDS_P2;PMS_P1;PMS_P2;Temp;Humidity;BMP_temperature;BMP_pressure;BME280_temperature;BME280_humidity;BME280_pressure;Samples;Min_cycle;Max_cycle;Signal;HPM_P1;HPM_P2
2022/02/05 00:03:25;;;;;;;2.30;1.27;;;;;;;;;;6236434;23;20191;-91
2022/02/05 00:06:35;;;;;;;2.23;1.33;;;;;;;;;;6234173;23;20187;-91
2022/02/05 00:10:02;;;;;;;2.47;1.37;;;;;;;;;;6232427;23;20167;-93
2022/02/05 00:13:25;;;;;;;2.67;1.40;;;;;;;;;;6231647;23;20191;-93
2022/02/05 00:40:17;;;;;;;2.10;1.33;;;;;;;;;;6208414;23;20211;-91
2022/02/05 00:43:24;;;;;;;3.80;1.27;;;;;;;;;;6233674;23;20622;-92
2022/02/05 00:46:33;;;;;;;6.90;1.60;;;;;;;;;;6232729;23;20622;-93
2022/02/05 01:51:03;;;;;;;0.50;0.50;;;;;;;;;;6248468;22;20206;-91
2022/02/05 01:54:34;;;;;;;0.60;0.53;;;;;;;;;;6248526;22;20170;-92
2022/02/05 01:57:49;;;;;;;4.13;0.67;;;;;;;;;;6267783;22;20159;-95
2022/02/05 02:14:45;;;;;;;1.37;0.80;;;;;;;;;;6248947;22;20641;-92
2022/02/05 02:18:16;;;;;;;1.37;0.80;;;;;;;;;;6247027;22;20247;-92
2022/02/05 02:21:32;;;;;;;3.00;1.00;;;;;;;;;;6244498;22;20201;-90
2022/02/05 02:24:48;;;;;;;1.43;0.80;;;;;;;;;;6248613;23;20210;-90
2022/02/05 02:28:07;;;;;;;2.60;1.10;;;;;;;;;;6246904;23;20174;-90
2022/02/05 02:31:18;;;;;;;2.90;1.43;;;;;;;;;;6244243;22;20683;-91
2022/02/05 02:34:29;;;;;;;2.30;1.30;;;;;;;;;;6251083;22;20196;-90
2022/02/05 02:37:45;;;;;;;1.73;1.13;;;;;;;;;;6247434;22;20193;-91
2022/02/05 02:40:59;;;;;;;1.93;1.20;;;;;;;;;;6246641;23;20194;-92
2022/02/05 02:44:05;;;;;;;2.03;1.30;;;;;;;;;;6246846;23;20166;-93
2022/02/05 02:47:10;;;;;;;3.20;1.30;;;;;;;;;;6245876;22;20166;-93
2022/02/05 02:50:29;;;;;;;2.17;1.20;;;;;;;;;;6246400;22;20155;-91
2022/02/05 02:57:11;;;;;;;3.97;1.70;;;;;;;;;;6245231;23;20235;-92
2022/02/05 03:00:19;;;;;;;2.77;1.40;;;;;;;;;;6247588;22;20163;-92
2022/02/05 03:03:25;;;;;;;3.47;1.80;;;;;;;;;;6244191;23;20182;-91
2022/02/05 03:06:30;;;;;;;4.10;2.03;;;;;;;;;;6249961;22;20171;-91
2022/02/05 03:09:41;;;;;;;2.70;1.53;;;;;;;;;;6246023;23;20167;-90
2022/02/05 03:12:46;;;;;;;3.20;1.90;;;;;;;;;;6244786;23;20175;-92
2022/02/05 03:15:55;;;;;;;3.60;2.17;;;;;;;;;;6244366;22;20153;-90
2022/02/05 03:19:10;;;;;;;4.53;2.17;;;;;;;;;;6245567;22;20162;-92
2022/02/05 03:22:16;;;;;;;2.93;2.10;;;;;;;;;;6244603;22;20214;-91
2022/02/05 03:25:23;;;;;;;4.07;2.10;;;;;;;;;;6247345;22;20224;-92
2022/02/05 03:28:28;;;;;;;3.73;1.97;;;;;;;;;;6246371;23;20217;-91
2022/02/05 03:31:36;;;;;;;4.70;2.00;;;;;;;;;;6247593;23;20158;-89
2022/02/05 03:34:45;;;;;;;2.33;1.70;;;;;;;;;;6245519;22;20206;-92
2022/02/05 03:37:52;;;;;;;2.90;2.03;;;;;;;;;;6250066;23;20224;-91
2022/02/05 03:40:59;;;;;;;3.43;2.03;;;;;;;;;;6246735;23;20221;-91
2022/02/05 03:44:04;;;;;;;3.10;2.00;;;;;;;;;;6248008;22;20166;-91
2022/02/05 03:47:10;;;;;;;3.97;1.73;;;;;;;;;;6248718;22;20171;-91
2022/02/05 03:50:15;;;;;;;2.43;1.70;;;;;;;;;;6247114;23;20174;-91
2022/02/05 03:53:21;;;;;;;2.93;1.93;;;;;;;;;;6246860;23;20190;-93
2022/02/05 03:56:31;;;;;;;2.53;1.70;;;;;;;;;;6247361;23;20190;-91
2022/02/05 03:59:37;;;;;;;3.13;1.87;;;;;;;;;;6247682;23;20538;-90
2022/02/05 04:02:43;;;;;;;2.60;1.87;;;;;;;;;;6245603;23;20267;-88
2022/02/05 04:05:49;;;;;;;3.20;2.00;;;;;;;;;;6246579;23;20178;-93
2022/02/05 04:09:01;;;;;;;3.50;1.90;;;;;;;;;;6247690;23;20243;-91
2022/02/05 04:15:59;;;;;;;4.10;2.10;;;;;;;;;;6184373;22;20231;-92
2022/02/05 04:19:05;;;;;;;4.57;2.20;;;;;;;;;;6245064;22;20170;-90
2022/02/05 04:22:10;;;;;;;4.33;2.30;;;;;;;;;;6247291;23;20530;-92
2022/02/05 04:25:17;;;;;;;4.00;2.43;;;;;;;;;;6245532;23;20166;-92
2022/02/05 04:28:28;;;;;;;4.17;2.27;;;;;;;;;;6246588;22;20174;-92
2022/02/05 04:31:34;;;;;;;3.77;2.33;;;;;;;;;;6247216;22;20194;-92
2022/02/05 04:34:41;;;;;;;8.33;2.60;;;;;;;;;;6246032;22;20182;-91
2022/02/05 04:37:50;;;;;;;5.40;2.80;;;;;;;;;;6246116;23;20185;-90
2022/02/05 04:41:01;;;;;;;4.23;2.83;;;;;;;;;;6245748;23;20217;-91
2022/02/05 04:44:20;;;;;;;5.63;2.90;;;;;;;;;;6245939;22;20154;-91
2022/02/05 04:54:33;;;;;;;4.87;2.80;;;;;;;;;;6229373;22;20190;-92
2022/02/05 05:05:00;;;;;;;3.27;2.23;;;;;;;;;;6245877;22;20541;-90
2022/02/05 05:15:24;;;;;;;2.90;1.60;;;;;;;;;;6247342;23;20157;-92
2022/02/05 05:21:55;;;;;;;2.97;1.57;;;;;;;;;;6247079;23;20248;-92
2022/02/05 05:25:01;;;;;;;5.43;1.73;;;;;;;;;;6248365;23;20170;-91
2022/02/05 05:28:06;;;;;;;2.17;1.63;;;;;;;;;;6249779;23;20155;-91
2022/02/05 05:31:11;;;;;;;5.07;1.90;;;;;;;;;;6247691;22;20225;-91
2022/02/05 05:34:17;;;;;;;4.50;2.03;;;;;;;;;;6246050;22;20161;-89
2022/02/05 05:37:23;;;;;;;4.63;1.80;;;;;;;;;;6245924;23;20171;-92
2022/02/05 05:40:28;;;;;;;5.00;2.13;;;;;;;;;;6248905;23;20207;-91
2022/02/05 05:43:45;;;;;;;4.17;1.77;;;;;;;;;;6245659;23;20217;-93
2022/02/05 05:47:14;;;;;;;6.83;1.97;;;;;;;;;;6247289;22;20162;-91
2022/02/05 05:50:58;;;;;;;6.23;2.07;;;;;;;;;;6247656;23;20155;-89
2022/02/05 05:54:02;;;;;;;4.77;1.67;;;;;;;;;;6246235;23;20174;-93
2022/02/05 05:57:13;;;;;;;4.37;2.17;;;;;;;;;;6246666;23;20174;-92
2022/02/05 06:00:20;;;;;;;6.10;2.27;;;;;;;;;;6248427;23;20212;-91
2022/02/05 06:03:25;;;;;;;5.60;1.70;;;;;;;;;;6248926;22;20158;-92
2022/02/05 06:06:30;;;;;;;4.53;1.80;;;;;;;;;;6247508;23;20637;-92
2022/02/05 06:09:42;;;;;;;47.40;14.80;;;;;;;;;;6248628;23;20147;-93
2022/02/05 06:12:48;;;;;;;4.47;2.20;;;;;;;;;;6249031;22;20191;-93
2022/02/05 06:15:55;;;;;;;3.63;2.00;;;;;;;;;;6247866;22;20229;-91
2022/02/05 06:19:00;;;;;;;6.50;2.63;;;;;;;;;;6247964;22;20211;-90
2022/02/05 06:22:06;;;;;;;5.53;2.30;;;;;;;;;;6248857;23;20227;-92
2022/02/05 06:25:13;;;;;;;4.47;1.90;;;;;;;;;;6246919;23;20162;-91
2022/02/05 06:28:18;;;;;;;5.60;1.80;;;;;;;;;;6247797;23;20154;-92
2022/02/05 06:31:23;;;;;;;8.67;1.90;;;;;;;;;;6244508;23;20174;-89
2022/02/05 06:34:29;;;;;;;5.77;2.10;;;;;;;;;;6245471;23;20166;-90
2022/02/05 06:37:35;;;;;;;7.03;2.20;;;;;;;;;;6246813;22;20238;-93
2022/02/05 06:40:45;;;;;;;2.77;1.90;;;;;;;;;;6247992;22;20201;-90
2022/02/05 06:43:51;;;;;;;5.10;1.70;;;;;;;;;;6248882;23;20158;-93
2022/02/05 06:46:56;;;;;;;3.07;1.93;;;;;;;;;;6248549;23;20212;-92
2022/02/05 06:50:01;;;;;;;3.13;1.80;;;;;;;;;;6247399;22;20167;-90
2022/02/05 06:53:09;;;;;;;7.27;2.30;;;;;;;;;;6248852;22;20178;-91
2022/02/05 06:56:16;;;;;;;4.07;2.10;;;;;;;;;;6247182;22;20203;-89
2022/02/05 06:59:23;;;;;;;4.50;1.90;;;;;;;;;;6245898;22;20162;-91
2022/02/05 07:02:28;;;;;;;4.43;1.73;;;;;;;;;;6246045;23;20198;-91
2022/02/05 07:05:33;;;;;;;5.77;1.90;;;;;;;;;;6246098;23;20227;-90
2022/02/05 07:08:40;;;;;;;5.37;1.77;;;;;;;;;;6246443;23;20165;-90
2022/02/05 07:11:47;;;;;;;4.97;2.00;;;;;;;;;;6242939;22;20170;-92
2022/02/05 07:15:02;;;;;;;3.57;1.50;;;;;;;;;;6247080;22;20182;-90
2022/02/05 07:18:14;;;;;;;4.90;1.73;;;;;;;;;;6245862;23;20186;-92
2022/02/05 07:21:28;;;;;;;4.33;1.60;;;;;;;;;;6244753;23;20170;-90
2022/02/05 07:31:19;;;;;;;5.67;2.20;;;;;;;;;;6250747;22;20171;-91
2022/02/05 23:41:13;;;;;;;10.00;4.07;;;;;;;;;;6182518;23;20168;-92
2022/02/05 23:44:26;;;;;;;11.07;3.50;;;;;;;;;;6186205;23;20179;-91
2022/02/05 23:47:34;;;;;;;10.97;4.03;;;;;;;;;;6190219;23;20223;-90
2022/02/05 23:50:45;;;;;;;10.77;4.20;;;;;;;;;;6187193;23;20213;-91
2022/02/05 23:53:51;;;;;;;16.47;4.20;;;;;;;;;;6188049;23;20223;-91
2022/02/05 23:57:11;;;;;;;11.80;3.53;;;;;;;;;;6161665;23;20244;-91
